Accueil
METAR-TAF:

METAR-TAF

Aéroports :

Base aérienne Cameri

Novare, Italie

latitude: 45-31N, longitude: 008-40E, altitude: 178 m

Observation

Le bulletin a été fait il y a 3 heures et 18 minutes, à 17:55 UTC
Température 9°C
Humidité 66%
Pression 1015 hPa
Visibilité 10 km ou plus
pas de nuages en-dessous de 1500 mètres et pas de cumulonimbus.

METAR: LIMN 081755Z /////KT CAVOK 09/03 Q1015 RMK FEW FEW100 VIS MIN 9999 BLU

Heure: 22:13 (21:13 UTC)

Prévision

Le bulletin a été fait il y a 4 heures et 13 minutes, à 17:00 UTC
Prévision valable du 08 à 18 UTC au 09 à 03 UTC
Vent 6 kt de nord-est
Visibilité: 8000 m
Quelques nuages à une hauteur de 3000 ft
Temporairement
du 08 à 18 UTC au 09 à 03 UTC
Visibilité: 5000 m
Nuages épars à une hauteur de 6000 ft
brume

TAF: LIMN 081700Z 0818/0903 05006KT 8000 FEW030 TEMPO 0818/0903 5000 BR SCT060

Observations et prévisions météorologiques de plus de 4000 aéroports (messages METAR et TAF).

Les stations disponibles sont représentées par des disques jaunes et rouges sur la carte.

Passer la souris dessus pour voir le nom de la station.

Cliquer dessus pour voir les observations et prévisions météorologiques.

Pour changer de carte: cliquez sur les boutons verts avec une croix noire pour zoomer, sur le bouton vert avec un tiret pour effectuer un zoom arrière, ou sur les flèches vertes pour les cartes adjacentes.


METAR-TAF: